Time;durP1;ratioP1;P1;durP2;ratioP2;P2;SDS_P1;SDS_P2;PMS_P1;PMS_P2;Temp;Humidity;BMP_temperature;BMP_pressure;BME280_temperature;BME280_humidity;BME280_pressure;Samples;Min_cycle;Max_cycle;Signal;HPM_P1;HPM_P2
2023/06/05 00:01:00;;;;;;;;;;;;;;;;;;5055107;28;20456;-60
2023/06/05 00:03:26;;;;;;;;;;;;;;;;;;5071946;28;19912;-60
2023/06/05 00:05:52;;;;;;;;;;;;;;;;;;5075121;28;19919;-60
2023/06/05 00:08:18;;;;;;;;;;;;;;;;;;5070828;28;20003;-60
2023/06/05 00:10:44;;;;;;;;;;;;;;;;;;5069770;28;19938;-60
2023/06/05 00:13:10;;;;;;;;;;;;;;;;;;5055298;28;19913;-60
2023/06/05 00:15:37;;;;;;;;;;;;;;;;;;5071830;28;19927;-60
2023/06/05 00:18:03;;;;;;;;;;;;;;;;;;5055138;28;19924;-60
2023/06/05 00:20:29;;;;;;;;;;;;;;;;;;5058916;28;20008;-60
2023/06/05 00:22:55;;;;;;;;;;;;;;;;;;5055174;28;19964;-60
2023/06/05 00:25:21;;;;;;;;;;;;;;;;;;5055544;28;19935;-60
2023/06/05 00:27:47;;;;;;;;;;;;;;;;;;5064830;28;19924;-60
2023/06/05 00:30:13;;;;;;;;;;;;;;;;;;5067034;28;19916;-60
2023/06/05 00:32:39;;;;;;;;;;;;;;;;;;5070434;28;20349;-60
2023/06/05 00:35:05;;;;;;;;;;;;;;;;;;5074611;28;19917;-60
2023/06/05 00:37:33;;;;;;;;;;;;;;;;;;5072671;28;19959;-60
2023/06/05 00:39:59;;;;;;;;;;;;;;;;;;5060933;28;19912;-60
2023/06/05 00:42:26;;;;;;;;;;;;;;;;;;5072867;28;20404;-60
2023/06/05 00:44:52;;;;;;;;;;;;;;;;;;5074373;28;19912;-60
2023/06/05 00:47:18;;;;;;;;;;;;;;;;;;5065287;28;19948;-60
2023/06/05 00:49:44;;;;;;;;;;;;;;;;;;5074470;28;20368;-60
2023/06/05 00:52:09;;;;;;;;;;;;;;;;;;5073873;28;19915;-60
2023/06/05 00:54:35;;;;;;;;;;;;;;;;;;5054675;28;19935;-60
2023/06/05 00:57:01;;;;;;;;;;;;;;;;;;5056698;28;19961;-60
2023/06/05 00:59:27;;;;;;;;;;;;;;;;;;5071588;28;19928;-60
2023/06/05 01:01:54;;;;;;;;;;;;;;;;;;5059551;28;19912;-60
2023/06/05 01:04:20;;;;;;;;;;;;;;;;;;5071657;28;19908;-60
2023/06/05 01:06:46;;;;;;;;;;;;;;;;;;5085460;28;19912;-60
2023/06/05 01:09:13;;;;;;;;;;;;;;;;;;5069231;28;20003;-60
2023/06/05 01:11:39;;;;;;;;;;;;;;;;;;5052732;28;20280;-60
2023/06/05 01:14:04;;;;;;;;;;;;;;;;;;5054046;28;20023;-60
2023/06/05 01:16:32;;;;;;;;;;;;;;;;;;5064233;28;19925;-60
2023/06/05 01:19:02;;;;;;;;;;;;;;;;;;5069188;28;19916;-60
2023/06/05 01:21:28;;;;;;;;;;;;;;;;;;5072205;28;19920;-60
2023/06/05 01:23:54;;;;;;;;;;;;;;;;;;5074199;28;19915;-60
2023/06/05 01:26:21;;;;;;;;;;;;;;;;;;5050959;28;20441;-60
2023/06/05 01:28:47;;;;;;;;;;;;;;;;;;5058754;28;19916;-60
2023/06/05 01:31:16;;;;;;;;;;;;;;;;;;5057075;28;19982;-60
2023/06/05 01:33:44;;;;;;;;;;;;;;;;;;5061030;28;19913;-60
2023/06/05 01:36:10;;;;;;;;;;;;;;;;;;5062207;28;19985;-60
2023/06/05 01:38:36;;;;;;;;;;;;;;;;;;5055199;28;19942;-60
2023/06/05 01:41:02;;;;;;;;;;;;;;;;;;5068231;28;19966;-60
2023/06/05 01:43:28;;;;;;;;;;;;;;;;;;5060421;28;20400;-60
2023/06/05 01:45:56;;;;;;;;;;;;;;;;;;5066834;28;19913;-60
2023/06/05 01:48:23;;;;;;;;;;;;;;;;;;5066427;28;20376;-60
2023/06/05 01:50:53;;;;;;;;;;;;;;;;;;5059825;28;20420;-60
2023/06/05 01:53:19;;;;;;;;;;;;;;;;;;5052909;28;19913;-60
2023/06/05 01:55:46;;;;;;;;;;;;;;;;;;5057694;28;20368;-60
2023/06/05 01:58:12;;;;;;;;;;;;;;;;;;5070553;28;19921;-60
2023/06/05 02:00:38;;;;;;;;;;;;;;;;;;5061717;28;20277;-60
2023/06/05 02:03:04;;;;;;;;;;;;;;;;;;5063125;28;19952;-60
2023/06/05 02:05:30;;;;;;;;;;;;;;;;;;5065282;28;19931;-60
2023/06/05 02:07:58;;;;;;;;;;;;;;;;;;5064597;28;19963;-60
2023/06/05 02:10:24;;;;;;;;;;;;;;;;;;5066619;28;19923;-60
2023/06/05 02:12:50;;;;;;;;;;;;;;;;;;5072956;28;19913;-60
2023/06/05 02:15:16;;;;;;;;;;;;;;;;;;5071830;28;19920;-60
2023/06/05 02:17:44;;;;;;;;;;;;;;;;;;5054433;28;20273;-60
2023/06/05 02:20:11;;;;;;;;;;;;;;;;;;5064356;28;19912;-60
2023/06/05 02:22:37;;;;;;;;;;;;;;;;;;5072029;28;19912;-60
2023/06/05 02:25:05;;;;;;;;;;;;;;;;;;5071719;28;20285;-60
2023/06/05 02:27:31;;;;;;;;;;;;;;;;;;5070928;28;19913;-60
2023/06/05 02:29:56;;;;;;;;;;;;;;;;;;5059884;28;19986;-60
2023/06/05 02:32:26;;;;;;;;;;;;;;;;;;5052713;28;19917;-60
2023/06/05 02:34:52;;;;;;;;;;;;;;;;;;5071561;28;20295;-60
2023/06/05 02:37:18;;;;;;;;;;;;;;;;;;5058558;28;20035;-60
2023/06/05 02:39:45;;;;;;;;;;;;;;;;;;5054432;28;19919;-60
2023/06/05 02:42:12;;;;;;;;;;;;;;;;;;5072653;28;19912;-60
2023/06/05 02:44:38;;;;;;;;;;;;;;;;;;5068804;28;19913;-60
2023/06/05 02:47:04;;;;;;;;;;;;;;;;;;5058621;28;20328;-60
2023/06/05 02:49:32;;;;;;;;;;;;;;;;;;5063092;28;19912;-60
2023/06/05 02:51:57;;;;;;;;;;;;;;;;;;5071039;28;19943;-60
2023/06/05 02:54:23;;;;;;;;;;;;;;;;;;5072403;28;20353;-60
2023/06/05 02:56:49;;;;;;;;;;;;;;;;;;5064109;28;20012;-60
2023/06/05 02:59:15;;;;;;;;;;;;;;;;;;5072168;28;20421;-60
2023/06/05 03:01:43;;;;;;;;;;;;;;;;;;5070453;28;19916;-60
2023/06/05 03:04:09;;;;;;;;;;;;;;;;;;5068762;28;19913;-60
2023/06/05 03:06:35;;;;;;;;;;;;;;;;;;5061444;28;19947;-60
2023/06/05 03:09:01;;;;;;;;;;;;;;;;;;5070273;28;19908;-60
2023/06/05 03:11:27;;;;;;;;;;;;;;;;;;5071842;28;19966;-60
2023/06/05 03:13:53;;;;;;;;;;;;;;;;;;5071442;28;19913;-60
2023/06/05 03:16:19;;;;;;;;;;;;;;;;;;5069225;28;19924;-60
2023/06/05 03:18:48;;;;;;;;;;;;;;;;;;5072046;28;19912;-60
2023/06/05 03:21:13;;;;;;;;;;;;;;;;;;5067279;28;19924;-60
2023/06/05 03:23:40;;;;;;;;;;;;;;;;;;5065617;28;20381;-60
2023/06/05 03:26:06;;;;;;;;;;;;;;;;;;5074123;28;19913;-60
2023/06/05 03:28:33;;;;;;;;;;;;;;;;;;5070291;28;20340;-60
2023/06/05 03:30:59;;;;;;;;;;;;;;;;;;5055517;28;19909;-60
2023/06/05 03:33:25;;;;;;;;;;;;;;;;;;5056242;28;19913;-60
2023/06/05 03:35:52;;;;;;;;;;;;;;;;;;5065695;28;19989;-60
2023/06/05 03:38:18;;;;;;;;;;;;;;;;;;5066887;28;19924;-60
2023/06/05 03:40:44;;;;;;;;;;;;;;;;;;5073009;28;19934;-60
2023/06/05 03:43:10;;;;;;;;;;;;;;;;;;5075660;28;19915;-60
2023/06/05 03:45:36;;;;;;;;;;;;;;;;;;5060078;28;19913;-60
2023/06/05 03:48:02;;;;;;;;;;;;;;;;;;5061798;28;19964;-60
2023/06/05 03:50:28;;;;;;;;;;;;;;;;;;5055452;28;19916;-60
2023/06/05 03:52:54;;;;;;;;;;;;;;;;;;5075049;28;19919;-60
2023/06/05 03:55:20;;;;;;;;;;;;;;;;;;5072922;28;20291;-60
2023/06/05 03:57:46;;;;;;;;;;;;;;;;;;5073864;28;19916;-60
2023/06/05 04:00:14;;;;;;;;;;;;;;;;;;5074712;28;20015;-60
2023/06/05 04:02:40;;;;;;;;;;;;;;;;;;5055104;28;19917;-60
2023/06/05 04:05:06;;;;;;;;;;;;;;;;;;5057524;28;19966;-60
2023/06/05 04:07:32;;;;;;;;;;;;;;;;;;5062164;28;19912;-60
2023/06/05 04:09:58;;;;;;;;;;;;;;;;;;5068595;28;19960;-60
2023/06/05 04:12:23;;;;;;;;;;;;;;;;;;5068212;28;19959;-60
2023/06/05 04:14:49;;;;;;;;;;;;;;;;;;5062726;28;20380;-60
2023/06/05 04:17:15;;;;;;;;;;;;;;;;;;5066667;28;20019;-60
2023/06/05 04:19:41;;;;;;;;;;;;;;;;;;5074833;28;19916;-60
2023/06/05 04:22:07;;;;;;;;;;;;;;;;;;5068375;28;19966;-60
2023/06/05 04:24:33;;;;;;;;;;;;;;;;;;5064294;28;19912;-60
2023/06/05 04:27:00;;;;;;;;;;;;;;;;;;5068412;28;20365;-60
2023/06/05 04:29:26;;;;;;;;;;;;;;;;;;5074782;28;20379;-60
2023/06/05 04:31:52;;;;;;;;;;;;;;;;;;5059722;28;19960;-60
2023/06/05 04:34:18;;;;;;;;;;;;;;;;;;5068536;28;19944;-61
2023/06/05 04:36:44;;;;;;;;;;;;;;;;;;5054386;28;19956;-60
2023/06/05 04:39:17;;;;;;;;;;;;;;;;;;5067097;28;20299;-60
2023/06/05 04:41:46;;;;;;;;;;;;;;;;;;5064470;28;19921;-60
2023/06/05 04:44:16;;;;;;;;;;;;;;;;;;5053904;28;19923;-60
2023/06/05 04:46:43;;;;;;;;;;;;;;;;;;5064982;28;20015;-60
2023/06/05 04:49:09;;;;;;;;;;;;;;;;;;5072010;28;19948;-60
2023/06/05 04:51:36;;;;;;;;;;;;;;;;;;5062182;28;20407;-61
2023/06/05 04:54:02;;;;;;;;;;;;;;;;;;5056374;28;19913;-60
2023/06/05 04:56:28;;;;;;;;;;;;;;;;;;5070825;28;19947;-60
2023/06/05 04:58:54;;;;;;;;;;;;;;;;;;5072547;28;20372;-60
2023/06/05 05:01:20;;;;;;;;;;;;;;;;;;5067173;28;19940;-61
2023/06/05 05:03:46;;;;;;;;;;;;;;;;;;5067905;28;19963;-60
2023/06/05 05:06:14;;;;;;;;;;;;;;;;;;5070857;28;19994;-61
2023/06/05 05:08:40;;;;;;;;;;;;;;;;;;5066445;28;19928;-60
2023/06/05 05:11:06;;;;;;;;;;;;;;;;;;5066784;28;19959;-60
2023/06/05 05:13:32;;;;;;;;;;;;;;;;;;5060422;28;19956;-61
2023/06/05 05:15:58;;;;;;;;;;;;;;;;;;5058127;28;19931;-60
2023/06/05 05:18:24;;;;;;;;;;;;;;;;;;5062120;28;19919;-60
2023/06/05 05:20:50;;;;;;;;;;;;;;;;;;5070249;28;19964;-61
2023/06/05 05:23:16;;;;;;;;;;;;;;;;;;5067243;28;20461;-61
2023/06/05 05:25:42;;;;;;;;;;;;;;;;;;5058224;28;19916;-61
2023/06/05 05:28:08;;;;;;;;;;;;;;;;;;5067778;28;19920;-60
2023/06/05 05:30:35;;;;;;;;;;;;;;;;;;5071873;28;19999;-60
2023/06/05 05:33:01;;;;;;;;;;;;;;;;;;5060718;28;19912;-61
2023/06/05 05:35:26;;;;;;;;;;;;;;;;;;5064671;28;20353;-60
2023/06/05 05:37:52;;;;;;;;;;;;;;;;;;5060446;28;19951;-61
2023/06/05 05:40:18;;;;;;;;;;;;;;;;;;5065294;28;20550;-59
2023/06/05 05:42:44;;;;;;;;;;;;;;;;;;5057841;28;19999;-61
2023/06/05 05:45:10;;;;;;;;;;;;;;;;;;5064077;28;19939;-61
2023/06/05 05:47:36;;;;;;;;;;;;;;;;;;5066807;28;20022;-61
2023/06/05 05:50:02;;;;;;;;;;;;;;;;;;5070300;28;20381;-61
2023/06/05 05:52:28;;;;;;;;;;;;;;;;;;5072540;28;19915;-61
2023/06/05 05:54:54;;;;;;;;;;;;;;;;;;5064980;28;19923;-61
2023/06/05 05:57:20;;;;;;;;;;;;;;;;;;5064874;28;19916;-59
2023/06/05 05:59:46;;;;;;;;;;;;;;;;;;5067525;28;20386;-61
2023/06/05 06:02:12;;;;;;;;;;;;;;;;;;5070726;28;20008;-60
2023/06/05 06:04:38;;;;;;;;;;;;;;;;;;5063171;28;19955;-61
2023/06/05 06:07:05;;;;;;;;;;;;;;;;;;5066589;28;19947;-61
2023/06/05 06:09:31;;;;;;;;;;;;;;;;;;5062927;28;19916;-61
2023/06/05 06:11:57;;;;;;;;;;;;;;;;;;5071384;28;19913;-61
2023/06/05 06:14:23;;;;;;;;;;;;;;;;;;5060407;28;19952;-61
2023/06/05 06:16:50;;;;;;;;;;;;;;;;;;5062253;28;19913;-61
2023/06/05 06:19:16;;;;;;;;;;;;;;;;;;5064553;28;20265;-61
2023/06/05 06:21:42;;;;;;;;;;;;;;;;;;5069244;28;19919;-61
2023/06/05 06:24:08;;;;;;;;;;;;;;;;;;5067918;28;20380;-61
2023/06/05 06:26:37;;;;;;;;;;;;;;;;;;5065792;28;19947;-61
2023/06/05 06:29:03;;;;;;;;;;;;;;;;;;5062749;28;19913;-62
2023/06/05 06:31:29;;;;;;;;;;;;;;;;;;5068583;28;20485;-62
2023/06/05 06:33:54;;;;;;;;;;;;;;;;;;5071504;28;19945;-61
2023/06/05 06:36:22;;;;;;;;;;;;;;;;;;5067062;28;19948;-61
2023/06/05 06:38:48;;;;;;;;;;;;;;;;;;5064967;28;19927;-61
2023/06/05 06:41:14;;;;;;;;;;;;;;;;;;5065551;28;19913;-61
2023/06/05 06:43:40;;;;;;;;;;;;;;;;;;5062747;28;19927;-62
2023/06/05 06:46:06;;;;;;;;;;;;;;;;;;5059305;28;20405;-62
2023/06/05 06:48:32;;;;;;;;;;;;;;;;;;5067872;28;19986;-61
2023/06/05 06:50:58;;;;;;;;;;;;;;;;;;5056219;28;21347;-61
2023/06/05 06:53:24;;;;;;;;;;;;;;;;;;5064127;28;20001;-61
2023/06/05 06:55:50;;;;;;;;;;;;;;;;;;5065862;28;19916;-61
2023/06/05 06:58:16;;;;;;;;;;;;;;;;;;5053212;28;19974;-61
2023/06/05 07:00:42;;;;;;;;;;;;;;;;;;5062067;28;19920;-62
2023/06/05 07:03:08;;;;;;;;;;;;;;;;;;5064160;28;20320;-62
2023/06/05 07:05:34;;;;;;;;;;;;;;;;;;5068090;28;19963;-61
2023/06/05 07:08:00;;;;;;;;;;;;;;;;;;5057816;28;20008;-62
2023/06/05 07:10:26;;;;;;;;;;;;;;;;;;5058699;28;19916;-61
2023/06/05 07:12:52;;;;;;;;;;;;;;;;;;5063647;28;20053;-61
2023/06/05 07:15:18;;;;;;;;;;;;;;;;;;5067309;28;20384;-62
2023/06/05 07:17:46;;;;;;;;;;;;;;;;;;5060086;28;22542;-62
2023/06/05 07:20:12;;;;;;;;;;;;;;;;;;5059557;28;19947;-62
2023/06/05 07:22:38;;;;;;;;;;;;;;;;;;5058696;28;19974;-61
2023/06/05 07:25:04;;;;;;;;;;;;;;;;;;5068995;28;19966;-61
2023/06/05 07:27:30;;;;;;;;;;;;;;;;;;5068723;28;19912;-61
2023/06/05 07:29:57;;;;;;;;;;;;;;;;;;5051523;28;20012;-61
2023/06/05 07:32:23;;;;;;;;;;;;;;;;;;5057119;28;20376;-61
2023/06/05 07:34:49;;;;;;;;;;;;;;;;;;5066394;28;19947;-61
2023/06/05 07:37:15;;;;;;;;;;;;;;;;;;5067751;28;19916;-61
2023/06/05 07:39:41;;;;;;;;;;;;;;;;;;5058002;28;19920;-61
2023/06/05 07:42:07;;;;;;;;;;;;;;;;;;5059173;28;19954;-61
2023/06/05 07:44:33;;;;;;;;;;;;;;;;;;5071258;28;19912;-61
2023/06/05 07:46:59;;;;;;;;;;;;;;;;;;5067567;28;19959;-61
2023/06/05 07:49:25;;;;;;;;;;;;;;;;;;5063086;28;19912;-61
2023/06/05 07:51:51;;;;;;;;;;;;;;;;;;5066573;28;19951;-60
2023/06/05 07:54:18;;;;;;;;;;;;;;;;;;5069146;28;19917;-62
2023/06/05 07:56:48;;;;;;;;;;;;;;;;;;5071258;28;20699;-62
2023/06/05 07:59:16;;;;;;;;;;;;;;;;;;5071419;28;19943;-60
2023/06/05 08:01:42;;;;;;;;;;;;;;;;;;5070958;28;20360;-60
2023/06/05 08:04:09;;;;;;;;;;;;;;;;;;5070564;28;19919;-61
2023/06/05 08:06:37;;;;;;;;;;;;;;;;;;5053369;28;20046;-61
2023/06/05 08:09:03;;;;;;;;;;;;;;;;;;5060797;28;19912;-61
2023/06/05 08:11:29;;;;;;;;;;;;;;;;;;5059782;28;19962;-61
2023/06/05 08:13:55;;;;;;;;;;;;;;;;;;5075121;28;19909;-61
2023/06/05 08:16:21;;;;;;;;;;;;;;;;;;5074703;28;19920;-59
2023/06/05 08:18:47;;;;;;;;;;;;;;;;;;5073528;28;20440;-59
2023/06/05 08:21:13;;;;;;;;;;;;;;;;;;5066537;28;19974;-62
2023/06/05 08:23:39;;;;;;;;;;;;;;;;;;5063983;28;19912;-59
2023/06/05 08:26:10;;;;;;;;;;;;;;;;;;5061114;28;20324;-59
2023/06/05 08:28:36;;;;;;;;;;;;;;;;;;5074852;28;19908;-59
2023/06/05 08:31:02;;;;;;;;;;;;;;;;;;5067430;28;19913;-59
2023/06/05 08:33:28;;;;;;;;;;;;;;;;;;5065077;28;19920;-60
2023/06/05 08:35:54;;;;;;;;;;;;;;;;;;5065537;28;19964;-60
2023/06/05 08:38:20;;;;;;;;;;;;;;;;;;5070841;28;19923;-60
2023/06/05 08:40:50;;;;;;;;;;;;;;;;;;5067095;28;19952;-59
2023/06/05 08:43:16;;;;;;;;;;;;;;;;;;5066296;28;20003;-60
2023/06/05 08:45:42;;;;;;;;;;;;;;;;;;5070363;28;20012;-59
2023/06/05 08:48:08;;;;;;;;;;;;;;;;;;5070230;28;19951;-60
2023/06/05 08:50:34;;;;;;;;;;;;;;;;;;5064442;28;20303;-60
2023/06/05 08:53:00;;;;;;;;;;;;;;;;;;5070245;28;19959;-59
2023/06/05 08:55:26;;;;;;;;;;;;;;;;;;5058513;28;19912;-60
2023/06/05 08:57:51;;;;;;;;;;;;;;;;;;5068573;28;20386;-59
2023/06/05 09:00:17;;;;;;;;;;;;;;;;;;5072840;28;19951;-59
2023/06/05 09:02:43;;;;;;;;;;;;;;;;;;5066990;28;20413;-60
2023/06/05 09:05:09;;;;;;;;;;;;;;;;;;5063892;28;19923;-59
2023/06/05 09:07:36;;;;;;;;;;;;;;;;;;5071518;28;20280;-60
2023/06/05 09:10:02;;;;;;;;;;;;;;;;;;5072799;28;19920;-66
2023/06/05 09:12:28;;;;;;;;;;;;;;;;;;5045932;28;19909;-68
2023/06/05 09:14:54;;;;;;;;;;;;;;;;;;5065606;28;19955;-68
2023/06/05 09:17:20;;;;;;;;;;;;;;;;;;5057390;28;20003;-67
2023/06/05 09:19:47;;;;;;;;;;;;;;;;;;5071736;28;20010;-67
2023/06/05 09:22:14;;;;;;;;;;;;;;;;;;5073266;28;19908;-67
2023/06/05 09:24:43;;;;;;;;;;;;;;;;;;5066834;28;19917;-67
2023/06/05 09:27:09;;;;;;;;;;;;;;;;;;5070140;28;19978;-66
2023/06/05 09:29:36;;;;;;;;;;;;;;;;;;5063635;28;20087;-67
2023/06/05 09:32:02;;;;;;;;;;;;;;;;;;5058879;28;19919;-67
2023/06/05 09:34:28;;;;;;;;;;;;;;;;;;5063206;28;19971;-67
2023/06/05 09:36:54;;;;;;;;;;;;;;;;;;5071992;28;19999;-67
2023/06/05 09:39:21;;;;;;;;;;;;;;;;;;5066791;28;20492;-67
2023/06/05 09:41:46;;;;;;;;;;;;;;;;;;5068118;28;19944;-67
2023/06/05 09:44:12;;;;;;;;;;;;;;;;;;5073126;28;19944;-67
2023/06/05 09:46:38;;;;;;;;;;;;;;;;;;5071966;28;20043;-67
2023/06/05 09:49:04;;;;;;;;;;;;;;;;;;5065045;28;19926;-66
2023/06/05 09:51:30;;;;;;;;;;;;;;;;;;5060109;28;19913;-67
2023/06/05 09:53:56;;;;;;;;;;;;;;;;;;5070909;28;20360;-66
2023/06/05 09:56:22;;;;;;;;;;;;;;;;;;5042166;28;19913;-67
2023/06/05 09:58:48;;;;;;;;;;;;;;;;;;5062243;28;19974;-67
2023/06/05 10:01:14;;;;;;;;;;;;;;;;;;5050635;28;19916;-67
2023/06/05 10:03:40;;;;;;;;;;;;;;;;;;5048748;28;19947;-67
2023/06/05 10:06:06;;;;;;;;;;;;;;;;;;5071787;28;19946;-67
2023/06/05 10:08:32;;;;;;;;;;;;;;;;;;5062472;28;20022;-67
2023/06/05 10:10:58;;;;;;;;;;;;;;;;;;5062468;28;19921;-67
2023/06/05 10:13:24;;;;;;;;;;;;;;;;;;5059048;28;19916;-67
2023/06/05 10:15:50;;;;;;;;;;;;;;;;;;5060757;28;20300;-67
2023/06/05 10:18:16;;;;;;;;;;;;;;;;;;5055231;28;19956;-67
2023/06/05 10:20:42;;;;;;;;;;;;;;;;;;5054626;28;20007;-67
2023/06/05 10:23:08;;;;;;;;;;;;;;;;;;5057886;28;20319;-67
2023/06/05 10:25:34;;;;;;;;;;;;;;;;;;5065242;28;19927;-66
2023/06/05 10:28:00;;;;;;;;;;;;;;;;;;5063045;28;19919;-68
2023/06/05 10:30:26;;;;;;;;;;;;;;;;;;5064206;28;19920;-68
2023/06/05 10:32:52;;;;;;;;;;;;;;;;;;5055332;28;20001;-65
2023/06/05 10:35:17;;;;;;;;;;;;;;;;;;5082691;28;20413;-68
2023/06/05 10:37:43;;;;;;;;;;;;;;;;;;5069124;28;19919;-66
2023/06/05 10:40:09;;;;;;;;;;;;;;;;;;5058395;28;19952;-66
2023/06/05 10:42:35;;;;;;;;;;;;;;;;;;5060110;28;20027;-67
2023/06/05 10:45:01;;;;;;;;;;;;;;;;;;5063333;28;20374;-68
2023/06/05 10:47:27;;;;;;;;;;;;;;;;;;5061014;28;19913;-66
2023/06/05 10:49:53;;;;;;;;;;;;;;;;;;5064281;28;19940;-68
2023/06/05 10:52:19;;;;;;;;;;;;;;;;;;5060290;28;19951;-68
2023/06/05 10:54:45;;;;;;;;;;;;;;;;;;5055978;28;19917;-65
2023/06/05 10:57:11;;;;;;;;;;;;;;;;;;5052523;28;20397;-66
2023/06/05 10:59:36;;;;;;;;;;;;;;;;;;5054089;28;20011;-68
2023/06/05 11:02:02;;;;;;;;;;;;;;;;;;5069594;28;19956;-67
2023/06/05 11:04:29;;;;;;;;;;;;;;;;;;5060295;28;19923;-66
2023/06/05 11:06:56;;;;;;;;;;;;;;;;;;5053252;28;19924;-68
2023/06/05 11:09:21;;;;;;;;;;;;;;;;;;5054388;28;20306;-68
2023/06/05 11:11:47;;;;;;;;;;;;;;;;;;5037056;28;19962;-66
2023/06/05 11:14:13;;;;;;;;;;;;;;;;;;5058569;28;19912;-67
2023/06/05 11:16:39;;;;;;;;;;;;;;;;;;5069678;28;19916;-68
2023/06/05 11:19:05;;;;;;;;;;;;;;;;;;5064272;28;20010;-68
2023/06/05 11:21:31;;;;;;;;;;;;;;;;;;5066102;28;19917;-68
2023/06/05 11:23:57;;;;;;;;;;;;;;;;;;5063907;28;19924;-68
2023/06/05 11:26:23;;;;;;;;;;;;;;;;;;5067485;28;19967;-68
2023/06/05 11:28:49;;;;;;;;;;;;;;;;;;5058252;28;19965;-68
2023/06/05 11:31:15;;;;;;;;;;;;;;;;;;5063736;28;19913;-68
2023/06/05 11:33:41;;;;;;;;;;;;;;;;;;5068978;28;19943;-68
2023/06/05 11:36:07;;;;;;;;;;;;;;;;;;5064980;28;19916;-68
2023/06/05 11:38:33;;;;;;;;;;;;;;;;;;5070526;28;19959;-68
2023/06/05 11:40:59;;;;;;;;;;;;;;;;;;5064300;28;19912;-68
2023/06/05 11:43:25;;;;;;;;;;;;;;;;;;5072858;28;19955;-68
2023/06/05 11:45:51;;;;;;;;;;;;;;;;;;5069900;28;19922;-68
2023/06/05 11:48:17;;;;;;;;;;;;;;;;;;5070664;28;20376;-69
2023/06/05 11:50:43;;;;;;;;;;;;;;;;;;5069092;28;19919;-67
2023/06/05 11:53:09;;;;;;;;;;;;;;;;;;5068955;28;19912;-68
2023/06/05 11:55:53;;;;;;;;;;;;;;;;;;5072082;28;19919;-68
2023/06/05 11:58:19;;;;;;;;;;;;;;;;;;5066117;28;19917;-68
2023/06/05 12:00:45;;;;;;;;;;;;;;;;;;5071661;28;19955;-68
2023/06/05 12:03:11;;;;;;;;;;;;;;;;;;5071671;28;19952;-68
2023/06/05 12:05:37;;;;;;;;;;;;;;;;;;5069198;28;20330;-68
2023/06/05 12:08:03;;;;;;;;;;;;;;;;;;5066760;28;20003;-68
2023/06/05 12:10:29;;;;;;;;;;;;;;;;;;5070120;28;19958;-68
2023/06/05 12:12:55;;;;;;;;;;;;;;;;;;5074167;28;19948;-68
2023/06/05 12:15:21;;;;;;;;;;;;;;;;;;5065717;28;19927;-69
2023/06/05 12:17:47;;;;;;;;;;;;;;;;;;5065255;28;19959;-68
2023/06/05 12:20:14;;;;;;;;;;;;;;;;;;5070879;28;20374;-68
2023/06/05 12:22:40;;;;;;;;;;;;;;;;;;5067917;28;19955;-69
2023/06/05 12:25:06;;;;;;;;;;;;;;;;;;5061471;28;19962;-68
2023/06/05 12:27:32;;;;;;;;;;;;;;;;;;5069159;28;20349;-68
2023/06/05 12:29:57;;;;;;;;;;;;;;;;;;5070935;28;19999;-69
2023/06/05 12:32:23;;;;;;;;;;;;;;;;;;5070000;28;19959;-68
2023/06/05 12:34:51;;;;;;;;;;;;;;;;;;5072618;28;20684;-69
2023/06/05 12:37:18;;;;;;;;;;;;;;;;;;5066638;28;20356;-69
2023/06/05 12:39:44;;;;;;;;;;;;;;;;;;5066728;28;20273;-69
2023/06/05 12:42:10;;;;;;;;;;;;;;;;;;5067431;28;19955;-68
2023/06/05 12:44:35;;;;;;;;;;;;;;;;;;5057220;28;19940;-69
2023/06/05 12:47:01;;;;;;;;;;;;;;;;;;5062883;28;19918;-69
2023/06/05 12:49:27;;;;;;;;;;;;;;;;;;5060824;28;19919;-69
2023/06/05 12:51:54;;;;;;;;;;;;;;;;;;5061173;28;19999;-68
2023/06/05 12:54:21;;;;;;;;;;;;;;;;;;5060862;28;19915;-68
2023/06/05 12:56:47;;;;;;;;;;;;;;;;;;5066942;28;20330;-69
2023/06/05 12:59:13;;;;;;;;;;;;;;;;;;5070639;28;19921;-69
2023/06/05 13:01:39;;;;;;;;;;;;;;;;;;5052027;28;20387;-68
2023/06/05 13:04:05;;;;;;;;;;;;;;;;;;5072358;28;19956;-69
2023/06/05 13:06:33;;;;;;;;;;;;;;;;;;5065682;28;20009;-69
2023/06/05 13:08:59;;;;;;;;;;;;;;;;;;5072509;28;19913;-69
2023/06/05 13:11:25;;;;;;;;;;;;;;;;;;5060127;28;19923;-69
2023/06/05 13:13:51;;;;;;;;;;;;;;;;;;5057951;28;20427;-66
2023/06/05 13:16:17;;;;;;;;;;;;;;;;;;5065862;28;19976;-69
2023/06/05 13:18:43;;;;;;;;;;;;;;;;;;5065707;28;19952;-69
2023/06/05 13:21:09;;;;;;;;;;;;;;;;;;5054564;28;19912;-68
2023/06/05 13:23:35;;;;;;;;;;;;;;;;;;5063851;28;19922;-69
2023/06/05 13:26:00;;;;;;;;;;;;;;;;;;5065283;28;20353;-67
2023/06/05 13:28:26;;;;;;;;;;;;;;;;;;5057877;28;19951;-62
2023/06/05 13:30:53;;;;;;;;;;;;;;;;;;5068332;28;20288;-63
2023/06/05 13:33:19;;;;;;;;;;;;;;;;;;5068199;28;19916;-62
2023/06/05 13:35:45;;;;;;;;;;;;;;;;;;5060772;28;19916;-63
2023/06/05 13:38:11;;;;;;;;;;;;;;;;;;5066216;28;19982;-60
2023/06/05 13:40:36;;;;;;;;;;;;;;;;;;5060115;28;20364;-61
2023/06/05 13:43:02;;;;;;;;;;;;;;;;;;5062611;28;19916;-61
2023/06/05 13:45:28;;;;;;;;;;;;;;;;;;5062295;28;19974;-60
2023/06/05 13:47:54;;;;;;;;;;;;;;;;;;5053234;28;23923;-60
2023/06/05 13:50:20;;;;;;;;;;;;;;;;;;5059720;28;20742;-60
2023/06/05 13:52:46;;;;;;;;;;;;;;;;;;5058811;28;19958;-60
2023/06/05 13:55:12;;;;;;;;;;;;;;;;;;5066910;28;19962;-60
2023/06/05 13:57:38;;;;;;;;;;;;;;;;;;5062519;28;19947;-60
2023/06/05 14:00:05;;;;;;;;;;;;;;;;;;5063033;28;19967;-60
2023/06/05 14:02:31;;;;;;;;;;;;;;;;;;5065442;28;19924;-60
2023/06/05 14:04:57;;;;;;;;;;;;;;;;;;5057263;28;20361;-60
2023/06/05 14:07:23;;;;;;;;;;;;;;;;;;5056152;28;19947;-60
2023/06/05 14:09:49;;;;;;;;;;;;;;;;;;5066910;28;20296;-61
2023/06/05 14:12:16;;;;;;;;;;;;;;;;;;5059945;28;19919;-60
2023/06/05 14:14:42;;;;;;;;;;;;;;;;;;5062246;28;20461;-60
2023/06/05 14:17:08;;;;;;;;;;;;;;;;;;5070061;28;19947;-60
2023/06/05 14:19:34;;;;;;;;;;;;;;;;;;5067188;28;19961;-60
2023/06/05 14:22:00;;;;;;;;;;;;;;;;;;5068381;28;19919;-60
2023/06/05 14:24:26;;;;;;;;;;;;;;;;;;5061845;28;19955;-60
2023/06/05 14:26:52;;;;;;;;;;;;;;;;;;5068278;28;19955;-60
2023/06/05 14:29:17;;;;;;;;;;;;;;;;;;5060667;28;20389;-60
2023/06/05 14:31:43;;;;;;;;;;;;;;;;;;5066135;28;19919;-60
2023/06/05 14:34:09;;;;;;;;;;;;;;;;;;5067097;28;20269;-60
2023/06/05 14:36:36;;;;;;;;;;;;;;;;;;5071167;28;19916;-61
2023/06/05 14:39:03;;;;;;;;;;;;;;;;;;5066695;28;19916;-60
2023/06/05 14:41:30;;;;;;;;;;;;;;;;;;5065905;28;19920;-60
2023/06/05 14:43:56;;;;;;;;;;;;;;;;;;5060832;28;19908;-60
2023/06/05 14:46:22;;;;;;;;;;;;;;;;;;5064408;28;20333;-60
2023/06/05 14:48:48;;;;;;;;;;;;;;;;;;5059596;28;19917;-60
2023/06/05 14:51:14;;;;;;;;;;;;;;;;;;5052743;28;19962;-60
2023/06/05 14:53:40;;;;;;;;;;;;;;;;;;5070349;28;19937;-60
2023/06/05 14:56:06;;;;;;;;;;;;;;;;;;5059538;28;19978;-59
2023/06/05 14:58:32;;;;;;;;;;;;;;;;;;5063293;28;19970;-59
2023/06/05 15:00:58;;;;;;;;;;;;;;;;;;5072813;28;19953;-62
2023/06/05 15:03:24;;;;;;;;;;;;;;;;;;5069046;28;20389;-59
2023/06/05 15:05:49;;;;;;;;;;;;;;;;;;5075433;28;20007;-60
2023/06/05 15:08:15;;;;;;;;;;;;;;;;;;5068479;28;19921;-59
2023/06/05 15:10:41;;;;;;;;;;;;;;;;;;5070317;28;19947;-59
2023/06/05 15:13:07;;;;;;;;;;;;;;;;;;5063315;28;20344;-62
2023/06/05 15:15:33;;;;;;;;;;;;;;;;;;5064631;28;20352;-62
2023/06/05 15:18:00;;;;;;;;;;;;;;;;;;5044939;28;19920;-59
2023/06/05 15:20:26;;;;;;;;;;;;;;;;;;5063351;28;19913;-62
2023/06/05 15:22:52;;;;;;;;;;;;;;;;;;5057454;28;19978;-61
2023/06/05 15:25:18;;;;;;;;;;;;;;;;;;5071126;28;20008;-61
2023/06/05 15:27:44;;;;;;;;;;;;;;;;;;5046978;28;19912;-61
2023/06/05 15:30:10;;;;;;;;;;;;;;;;;;5063650;28;19917;-60
2023/06/05 15:32:36;;;;;;;;;;;;;;;;;;5061645;28;19959;-61
2023/06/05 15:35:02;;;;;;;;;;;;;;;;;;5074514;28;19919;-61
2023/06/05 15:37:28;;;;;;;;;;;;;;;;;;5063073;28;20003;-61
2023/06/05 15:39:54;;;;;;;;;;;;;;;;;;5065216;28;20031;-61
2023/06/05 15:42:20;;;;;;;;;;;;;;;;;;5070865;28;19937;-61
2023/06/05 15:44:46;;;;;;;;;;;;;;;;;;5067798;28;20377;-60
2023/06/05 15:47:12;;;;;;;;;;;;;;;;;;5061711;28;19913;-61
2023/06/05 15:49:38;;;;;;;;;;;;;;;;;;5064702;28;19971;-60
2023/06/05 15:52:04;;;;;;;;;;;;;;;;;;5066330;28;20317;-60
2023/06/05 15:54:30;;;;;;;;;;;;;;;;;;5059000;28;19913;-61
2023/06/05 15:56:56;;;;;;;;;;;;;;;;;;5066924;28;19912;-60
2023/06/05 15:59:22;;;;;;;;;;;;;;;;;;5075133;28;19940;-60
2023/06/05 16:01:49;;;;;;;;;;;;;;;;;;5064287;28;20432;-61
2023/06/05 16:04:15;;;;;;;;;;;;;;;;;;5060195;28;19913;-60
2023/06/05 16:06:41;;;;;;;;;;;;;;;;;;5065521;28;19952;-60
2023/06/05 16:09:07;;;;;;;;;;;;;;;;;;5072826;28;19999;-60
2023/06/05 16:11:33;;;;;;;;;;;;;;;;;;5066843;28;19913;-60
2023/06/05 16:13:59;;;;;;;;;;;;;;;;;;5065278;28;20311;-60
2023/06/05 16:16:25;;;;;;;;;;;;;;;;;;5060653;28;19979;-60
2023/06/05 16:18:51;;;;;;;;;;;;;;;;;;5069982;28;20010;-60
2023/06/05 16:21:16;;;;;;;;;;;;;;;;;;5055625;28;20033;-60
2023/06/05 16:23:42;;;;;;;;;;;;;;;;;;5050971;28;19995;-60
2023/06/05 16:26:08;;;;;;;;;;;;;;;;;;5067839;28;20043;-60
2023/06/05 16:28:34;;;;;;;;;;;;;;;;;;5072012;28;20281;-60
2023/06/05 16:31:00;;;;;;;;;;;;;;;;;;5070065;28;19921;-60
2023/06/05 16:33:26;;;;;;;;;;;;;;;;;;5057218;28;19951;-60
2023/06/05 16:35:52;;;;;;;;;;;;;;;;;;5064011;28;19913;-60
2023/06/05 16:38:18;;;;;;;;;;;;;;;;;;5072738;28;19963;-60